Time;durP1;ratioP1;P1;durP2;ratioP2;P2;SDS_P1;SDS_P2;PMS_P1;PMS_P2;Temp;Humidity;BMP_temperature;BMP_pressure;BME280_temperature;BME280_humidity;BME280_pressure;Samples;Min_cycle;Max_cycle;Signal;HPM_P1;HPM_P2
2023/09/20 00:00:11;;;;;;;;;;;;;;;20.10;100.00;97878.97;5121547;28;19956;-70
2023/09/20 00:02:40;;;;;;;;;;;;;;;20.11;100.00;97881.38;5123830;28;19935;-70
2023/09/20 00:05:12;;;;;;;;;;;;;;;20.09;100.00;97886.31;5124911;28;19951;-69
2023/09/20 00:07:39;;;;;;;;;;;;;;;20.12;100.00;97876.72;5122214;28;19931;-70
2023/09/20 00:10:11;;;;;;;;;;;;;;;20.14;100.00;97882.66;5121291;28;19935;-69
2023/09/20 00:12:38;;;;;;;;;;;;;;;20.11;100.00;97881.38;5124076;28;19992;-70
2023/09/20 00:15:07;;;;;;;;;;;;;;;20.11;100.00;97886.00;5104755;28;19923;-70
2023/09/20 00:17:34;;;;;;;;;;;;;;;20.10;100.00;97877.06;5119616;28;19924;-70
2023/09/20 00:20:11;;;;;;;;;;;;;;;20.10;100.00;97887.91;5121216;28;19927;-70
2023/09/20 00:22:40;;;;;;;;;;;;;;;20.10;100.00;97884.41;5123521;28;19963;-70
2023/09/20 00:25:06;;;;;;;;;;;;;;;20.05;100.00;97882.69;5124449;28;19931;-70
2023/09/20 00:27:34;;;;;;;;;;;;;;;20.03;100.00;97881.41;5122578;28;19927;-70
2023/09/20 00:30:01;;;;;;;;;;;;;;;20.02;100.00;97882.53;5120974;28;19947;-69
2023/09/20 00:32:28;;;;;;;;;;;;;;;20.01;100.00;97892.56;5121729;28;19924;-70
2023/09/20 00:34:55;;;;;;;;;;;;;;;20.01;100.00;97881.75;5124029;28;19935;-70
2023/09/20 00:37:21;;;;;;;;;;;;;;;20.01;100.00;97887.16;5105599;28;19959;-71
2023/09/20 00:39:48;;;;;;;;;;;;;;;20.01;100.00;97880.94;5120488;28;19927;-69
2023/09/20 00:42:14;;;;;;;;;;;;;;;20.00;100.00;97880.13;5120386;28;19978;-70
2023/09/20 00:44:40;;;;;;;;;;;;;;;19.97;100.00;97871.84;5123258;28;19928;-69
2023/09/20 00:47:07;;;;;;;;;;;;;;;19.92;100.00;97870.94;5117267;28;19959;-70
2023/09/20 00:49:35;;;;;;;;;;;;;;;19.86;100.00;97871.44;5121647;28;19927;-69
2023/09/20 00:52:03;;;;;;;;;;;;;;;19.88;100.00;97874.59;5120213;28;19920;-69
2023/09/20 00:54:30;;;;;;;;;;;;;;;19.87;100.00;97878.41;5121395;28;20004;-70
2023/09/20 00:56:56;;;;;;;;;;;;;;;19.87;100.00;97876.50;5123683;28;19980;-70
2023/09/20 00:59:23;;;;;;;;;;;;;;;19.90;100.00;97884.00;5123158;28;20026;-70
2023/09/20 01:01:49;;;;;;;;;;;;;;;19.88;100.00;97872.69;5119965;28;19928;-69
2023/09/20 01:04:16;;;;;;;;;;;;;;;19.85;100.00;97876.03;5119954;28;19930;-69
2023/09/20 01:06:44;;;;;;;;;;;;;;;19.86;100.00;97868.72;5104939;28;19924;-69
2023/09/20 01:09:13;;;;;;;;;;;;;;;19.86;100.00;97876.84;5123373;28;19923;-70
2023/09/20 01:11:40;;;;;;;;;;;;;;;19.88;100.00;97871.88;5120477;28;19949;-70
2023/09/20 01:14:06;;;;;;;;;;;;;;;19.81;100.00;97866.97;5119836;28;19927;-69
2023/09/20 01:16:34;;;;;;;;;;;;;;;19.81;100.00;97868.88;5115073;28;19987;-69
2023/09/20 01:19:02;;;;;;;;;;;;;;;19.84;100.00;97868.22;5122864;28;19924;-69
2023/09/20 01:21:28;;;;;;;;;;;;;;;19.82;100.00;97871.28;5122172;28;19947;-69
2023/09/20 01:23:57;;;;;;;;;;;;;;;19.82;100.00;97868.56;5120001;28;19955;-69
2023/09/20 01:26:23;;;;;;;;;;;;;;;19.82;100.00;97863.16;5120178;28;19958;-70
2023/09/20 01:28:50;;;;;;;;;;;;;;;19.83;100.00;97872.06;5123201;28;19934;-70
2023/09/20 01:31:17;;;;;;;;;;;;;;;19.85;100.00;97869.81;5123117;28;19931;-70
2023/09/20 01:33:43;;;;;;;;;;;;;;;19.83;100.00;97874.78;5120025;28;20341;-70
2023/09/20 01:36:10;;;;;;;;;;;;;;;19.84;100.00;97868.22;5119534;28;19928;-70
2023/09/20 01:38:39;;;;;;;;;;;;;;;19.81;100.00;97866.16;5122262;28;19928;-70
2023/09/20 01:41:07;;;;;;;;;;;;;;;19.80;100.00;97865.41;5123135;28;19930;-70
2023/09/20 01:43:36;;;;;;;;;;;;;;;19.79;100.00;97860.28;5121033;28;20252;-69
2023/09/20 01:46:05;;;;;;;;;;;;;;;19.81;100.00;97855.31;5113105;28;19992;-70
2023/09/20 01:48:31;;;;;;;;;;;;;;;19.77;100.00;97857.09;5120993;28;20102;-71
2023/09/20 01:50:58;;;;;;;;;;;;;;;19.76;100.00;97856.31;5123184;28;19935;-70
2023/09/20 01:53:25;;;;;;;;;;;;;;;19.75;100.00;97856.63;5122262;28;19934;-69
2023/09/20 01:55:51;;;;;;;;;;;;;;;19.70;100.00;97852.19;5101382;28;19924;-70
2023/09/20 01:58:19;;;;;;;;;;;;;;;19.70;100.00;97849.47;5101418;28;19946;-70
2023/09/20 02:00:50;;;;;;;;;;;;;;;19.67;100.00;97847.41;5111408;28;19946;-70
2023/09/20 02:03:17;;;;;;;;;;;;;;;19.66;100.00;97853.13;5119333;28;19966;-70
2023/09/20 02:05:46;;;;;;;;;;;;;;;19.60;100.00;97849.00;5122851;28;19932;-69
2023/09/20 02:08:12;;;;;;;;;;;;;;;19.52;100.00;97845.22;5122836;28;19928;-70
2023/09/20 02:10:39;;;;;;;;;;;;;;;19.34;100.00;97847.13;5120313;28;19924;-70
2023/09/20 02:13:05;;;;;;;;;;;;;;;19.40;100.00;97842.38;5119156;28;19946;-70
2023/09/20 02:15:34;;;;;;;;;;;;;;;19.51;100.00;97848.25;5097679;28;19944;-69
2023/09/20 02:18:01;;;;;;;;;;;;;;;19.49;100.00;97843.16;5119472;28;19924;-69
2023/09/20 02:20:31;;;;;;;;;;;;;;;19.51;100.00;97850.94;5120202;28;19920;-69
2023/09/20 02:22:58;;;;;;;;;;;;;;;19.46;100.00;97849.22;5122734;28;19962;-69
2023/09/20 02:25:26;;;;;;;;;;;;;;;19.49;100.00;97854.00;5121930;28;19924;-69
2023/09/20 02:27:57;;;;;;;;;;;;;;;19.43;100.00;97851.78;5118877;28;19931;-69
2023/09/20 02:30:28;;;;;;;;;;;;;;;19.40;100.00;97856.69;5119433;28;19943;-69
2023/09/20 02:32:57;;;;;;;;;;;;;;;19.36;100.00;97857.66;5125793;28;19924;-70
2023/09/20 02:35:24;;;;;;;;;;;;;;;19.18;100.00;97862.28;5125930;28;19927;-70
2023/09/20 02:37:51;;;;;;;;;;;;;;;19.06;100.00;97859.44;5123251;28;19924;-69
2023/09/20 02:40:18;;;;;;;;;;;;;;;19.06;100.00;97859.44;5122943;28;19924;-70
2023/09/20 02:42:45;;;;;;;;;;;;;;;18.96;100.00;97867.84;5126543;28;19930;-70
2023/09/20 02:45:13;;;;;;;;;;;;;;;18.85;100.00;97867.38;5122013;28;19920;-69
2023/09/20 02:47:40;;;;;;;;;;;;;;;18.65;100.00;97864.47;5121907;28;19930;-69
2023/09/20 02:50:08;;;;;;;;;;;;;;;18.79;100.00;97863.22;5122405;28;19927;-69
2023/09/20 02:52:35;;;;;;;;;;;;;;;18.83;100.00;97863.38;5125173;28;19927;-69
2023/09/20 02:55:06;;;;;;;;;;;;;;;18.96;100.00;97869.75;5125933;28;19930;-69
2023/09/20 02:57:32;;;;;;;;;;;;;;;18.97;100.00;97874.84;5125728;28;19923;-69
2023/09/20 02:59:59;;;;;;;;;;;;;;;18.91;100.00;97865.28;5122647;28;19932;-69
2023/09/20 03:02:25;;;;;;;;;;;;;;;18.53;100.00;97869.72;5123109;28;19952;-69
2023/09/20 03:04:53;;;;;;;;;;;;;;;18.08;100.00;97875.25;5125950;28;19920;-69
2023/09/20 03:07:21;;;;;;;;;;;;;;;18.09;100.00;97871.47;5125772;28;19924;-69
2023/09/20 03:09:48;;;;;;;;;;;;;;;17.72;100.00;97877.31;5114397;28;19955;-69
2023/09/20 03:12:14;;;;;;;;;;;;;;;17.59;100.00;97872.78;5122300;28;19991;-70
2023/09/20 03:14:41;;;;;;;;;;;;;;;17.41;100.00;97868.38;5124922;28;19933;-69
2023/09/20 03:17:08;;;;;;;;;;;;;;;17.03;100.00;97873.31;5119278;28;19924;-69
2023/09/20 03:19:35;;;;;;;;;;;;;;;16.90;100.00;97869.56;5123630;28;19924;-69
2023/09/20 03:22:02;;;;;;;;;;;;;;;17.06;100.00;97873.50;5121976;28;19920;-69
2023/09/20 03:24:30;;;;;;;;;;;;;;;17.04;100.00;97873.03;5123038;28;19988;-69
2023/09/20 03:26:57;;;;;;;;;;;;;;;17.22;100.00;97874.75;5125791;28;19979;-70
2023/09/20 03:29:26;;;;;;;;;;;;;;;17.35;100.00;97875.00;5125271;28;19955;-69
2023/09/20 03:31:53;;;;;;;;;;;;;;;17.62;100.00;97877.56;5122544;28;19932;-69
2023/09/20 03:34:21;;;;;;;;;;;;;;;17.46;100.00;97876.31;5122330;28;20362;-70
2023/09/20 03:36:47;;;;;;;;;;;;;;;17.36;100.00;97868.50;5114254;28;19930;-70
2023/09/20 03:39:14;;;;;;;;;;;;;;;17.10;100.00;97869.09;5104045;28;19924;-70
2023/09/20 03:41:42;;;;;;;;;;;;;;;17.31;100.00;97872.09;5124941;28;19932;-70
2023/09/20 03:44:09;;;;;;;;;;;;;;;17.78;100.00;97867.97;5107231;28;19924;-71
2023/09/20 03:46:36;;;;;;;;;;;;;;;18.09;100.00;97865.25;5113511;28;19942;-70
2023/09/20 03:49:03;;;;;;;;;;;;;;;18.33;100.00;97871.06;5124682;28;19928;-68
2023/09/20 03:51:30;;;;;;;;;;;;;;;18.46;100.00;97856.63;5123394;28;19951;-68
2023/09/20 03:53:56;;;;;;;;;;;;;;;18.48;100.00;97854.38;5121290;28;19924;-68
2023/09/20 03:56:23;;;;;;;;;;;;;;;18.53;100.00;97853.50;5121345;28;19935;-68
2023/09/20 03:58:50;;;;;;;;;;;;;;;18.39;100.00;97852.78;5124439;28;19924;-69
2023/09/20 04:01:17;;;;;;;;;;;;;;;18.41;100.00;97853.28;5124733;28;19934;-70
2023/09/20 04:03:43;;;;;;;;;;;;;;;18.15;100.00;97861.31;5121509;28;19930;-70
2023/09/20 04:06:09;;;;;;;;;;;;;;;18.03;100.00;97864.59;5121273;28;19928;-70
2023/09/20 04:08:36;;;;;;;;;;;;;;;17.99;100.00;97866.31;5123419;28;19928;-70
2023/09/20 04:11:05;;;;;;;;;;;;;;;18.03;100.00;97863.81;5124458;28;19923;-70
2023/09/20 04:13:32;;;;;;;;;;;;;;;18.08;100.00;97859.03;5122571;28;19924;-68
2023/09/20 04:16:03;;;;;;;;;;;;;;;18.03;100.00;97861.91;5113833;28;19923;-68
2023/09/20 04:18:29;;;;;;;;;;;;;;;17.83;100.00;97851.63;5121926;28;19924;-69
2023/09/20 04:20:56;;;;;;;;;;;;;;;17.43;100.00;97866.16;5106058;28;19996;-68
2023/09/20 04:23:22;;;;;;;;;;;;;;;17.56;100.00;97857.22;5124100;28;19920;-68
2023/09/20 04:25:48;;;;;;;;;;;;;;;17.56;100.00;97865.31;5120629;28;19920;-68
2023/09/20 04:28:15;;;;;;;;;;;;;;;17.15;100.00;97858.19;5102692;28;19920;-68
2023/09/20 04:30:41;;;;;;;;;;;;;;;16.88;100.00;97860.19;5123921;28;19939;-70
2023/09/20 04:33:10;;;;;;;;;;;;;;;16.71;100.00;97853.53;5124783;28;19946;-70
2023/09/20 04:35:37;;;;;;;;;;;;;;;16.66;100.00;97855.53;5122016;28;19927;-69
2023/09/20 04:38:03;;;;;;;;;;;;;;;16.47;100.00;97858.34;5102670;28;19958;-70
2023/09/20 04:40:30;;;;;;;;;;;;;;;16.69;100.00;97854.94;5121832;28;19924;-69
2023/09/20 04:42:57;;;;;;;;;;;;;;;16.86;100.00;97854.31;5124069;28;19923;-69
2023/09/20 04:45:23;;;;;;;;;;;;;;;17.18;100.00;97846.78;5116980;28;19920;-70
2023/09/20 04:47:50;;;;;;;;;;;;;;;17.94;100.00;97847.56;5120236;28;19924;-69
2023/09/20 04:50:18;;;;;;;;;;;;;;;17.70;100.00;97852.53;5119965;28;19928;-68
2023/09/20 04:52:46;;;;;;;;;;;;;;;17.70;100.00;97857.94;5105017;28;19987;-68
2023/09/20 04:55:13;;;;;;;;;;;;;;;17.46;100.00;97850.13;5122412;28;19934;-68
2023/09/20 04:57:39;;;;;;;;;;;;;;;17.48;100.00;97853.34;5120603;28;19980;-68
2023/09/20 05:00:09;;;;;;;;;;;;;;;17.39;100.00;97857.09;5119966;28;19931;-68
2023/09/20 05:02:35;;;;;;;;;;;;;;;17.18;100.00;97851.38;5122872;28;19925;-69
2023/09/20 05:05:04;;;;;;;;;;;;;;;17.25;100.00;97857.16;5106039;28;19934;-70
2023/09/20 05:07:33;;;;;;;;;;;;;;;17.74;100.00;97861.59;5122284;28;19924;-70
2023/09/20 05:10:00;;;;;;;;;;;;;;;17.71;100.00;97854.09;5120102;28;19924;-70
2023/09/20 05:12:26;;;;;;;;;;;;;;;17.43;100.00;97866.16;5120873;28;19924;-69
2023/09/20 05:14:52;;;;;;;;;;;;;;;17.74;100.00;97877.81;5123719;28;19920;-69
2023/09/20 05:17:19;;;;;;;;;;;;;;;17.77;100.00;97869.06;5121024;28;19924;-69
2023/09/20 05:19:45;;;;;;;;;;;;;;;18.10;100.00;97878.47;5124171;28;19946;-69
2023/09/20 05:22:12;;;;;;;;;;;;;;;18.01;100.00;97868.72;5124636;28;19927;-69
2023/09/20 05:24:40;;;;;;;;;;;;;;;18.03;100.00;97875.41;5121622;28;19930;-69
2023/09/20 05:27:07;;;;;;;;;;;;;;;17.74;100.00;97877.81;5120026;28;19927;-69
2023/09/20 05:29:33;;;;;;;;;;;;;;;17.85;100.00;97881.03;5121701;28;19938;-69
2023/09/20 05:32:00;;;;;;;;;;;;;;;18.12;100.00;97875.44;5123022;28;19923;-69
2023/09/20 05:34:26;;;;;;;;;;;;;;;18.27;100.00;97875.00;5122201;28;19923;-70
2023/09/20 05:36:53;;;;;;;;;;;;;;;18.11;100.00;97877.34;5119607;28;19928;-69
2023/09/20 05:39:19;;;;;;;;;;;;;;;18.00;100.00;97875.22;5119699;28;19924;-69
2023/09/20 05:41:47;;;;;;;;;;;;;;;17.81;100.00;97875.47;5123296;28;19973;-69
2023/09/20 05:44:13;;;;;;;;;;;;;;;17.65;100.00;97895.88;5122997;28;19924;-69
2023/09/20 05:46:40;;;;;;;;;;;;;;;17.56;100.00;97889.63;5111620;28;19924;-69
2023/09/20 05:49:06;;;;;;;;;;;;;;;17.72;100.00;97893.53;5123048;28;19950;-69
2023/09/20 05:51:33;;;;;;;;;;;;;;;17.30;100.00;97892.09;5121693;28;19946;-69
2023/09/20 05:53:59;;;;;;;;;;;;;;;17.07;100.00;97883.22;5119719;28;19935;-69
2023/09/20 05:56:25;;;;;;;;;;;;;;;17.17;100.00;97892.97;5120139;28;20047;-70
2023/09/20 05:58:53;;;;;;;;;;;;;;;17.35;100.00;97888.50;5124123;28;19970;-69
2023/09/20 06:01:20;;;;;;;;;;;;;;;17.30;100.00;97888.63;5124252;28;19943;-69
2023/09/20 06:03:47;;;;;;;;;;;;;;;17.37;100.00;97891.66;5112188;28;20010;-69
2023/09/20 06:06:14;;;;;;;;;;;;;;;17.48;100.00;97891.13;5122036;28;19991;-69
2023/09/20 06:08:41;;;;;;;;;;;;;;;17.59;100.00;97889.00;5108429;28;19924;-69
2023/09/20 06:11:08;;;;;;;;;;;;;;;17.32;100.00;97889.09;5127214;28;19924;-68
2023/09/20 06:13:34;;;;;;;;;;;;;;;17.26;100.00;97889.25;5124878;28;19923;-68
2023/09/20 06:16:03;;;;;;;;;;;;;;;17.26;100.00;97897.34;5125608;28;19924;-69
2023/09/20 06:18:29;;;;;;;;;;;;;;;17.42;100.00;97894.25;5125880;28;19980;-69
2023/09/20 06:20:56;;;;;;;;;;;;;;;17.49;100.00;97903.50;5123521;28;19987;-69
2023/09/20 06:23:25;;;;;;;;;;;;;;;17.09;100.00;97897.19;5123511;28;19924;-69
2023/09/20 06:25:53;;;;;;;;;;;;;;;16.92;100.00;97896.25;5126656;28;19988;-69
2023/09/20 06:28:19;;;;;;;;;;;;;;;17.13;100.00;97898.19;5126580;28;19923;-69
2023/09/20 06:30:47;;;;;;;;;;;;;;;16.97;100.00;97888.03;5122994;28;19924;-69
2023/09/20 06:33:16;;;;;;;;;;;;;;;16.87;100.00;97888.25;5123582;28;19950;-68
2023/09/20 06:35:43;;;;;;;;;;;;;;;16.86;100.00;97890.16;5126127;28;19928;-69
2023/09/20 06:38:10;;;;;;;;;;;;;;;17.34;100.00;97895.78;5108660;28;19924;-70
2023/09/20 06:40:39;;;;;;;;;;;;;;;17.75;100.00;97909.13;5124640;28;19923;-69
2023/09/20 06:43:06;;;;;;;;;;;;;;;17.68;100.00;97904.16;5123370;28;19924;-69
2023/09/20 06:45:32;;;;;;;;;;;;;;;17.70;100.00;97907.31;5119702;28;19938;-70
2023/09/20 06:47:59;;;;;;;;;;;;;;;17.70;100.00;97901.16;5123271;28;19920;-69
2023/09/20 06:50:27;;;;;;;;;;;;;;;17.78;100.00;97903.09;5123489;28;20018;-70
2023/09/20 06:52:54;;;;;;;;;;;;;;;17.74;100.00;97902.09;5126745;28;19946;-70
2023/09/20 06:55:20;;;;;;;;;;;;;;;17.73;100.00;97901.31;5126233;28;19970;-68
2023/09/20 06:57:48;;;;;;;;;;;;;;;17.21;100.00;97899.34;5114544;28;19930;-69
2023/09/20 07:00:24;;;;;;;;;;;;;;;16.89;100.00;97889.56;5123096;28;19995;-69
2023/09/20 07:02:51;;;;;;;;;;;;;;;16.95;100.00;97899.13;5115224;28;19924;-69
2023/09/20 07:05:18;;;;;;;;;;;;;;;16.86;100.00;97900.16;5122644;28;19920;-69
2023/09/20 07:07:46;;;;;;;;;;;;;;;16.81;100.00;97901.06;5125485;28;19987;-69
2023/09/20 07:10:15;;;;;;;;;;;;;;;16.69;100.00;97904.28;5125796;28;19970;-69
2023/09/20 07:12:42;;;;;;;;;;;;;;;17.04;100.00;97899.19;5122784;28;19995;-69
2023/09/20 07:15:09;;;;;;;;;;;;;;;16.58;100.00;97902.09;5122326;28;19924;-69
2023/09/20 07:17:35;;;;;;;;;;;;;;;16.41;100.00;97897.28;5123333;28;19952;-69
2023/09/20 07:20:04;;;;;;;;;;;;;;;16.34;100.00;97896.13;5125750;28;19955;-69
2023/09/20 07:22:34;;;;;;;;;;;;;;;16.35;100.00;97897.69;5123941;28;19945;-69
2023/09/20 07:25:05;;;;;;;;;;;;;;;16.69;100.00;97898.88;5122345;28;19935;-70
2023/09/20 07:27:32;;;;;;;;;;;;;;;16.72;100.00;97897.47;5123654;28;20594;-68
2023/09/20 07:29:59;;;;;;;;;;;;;;;16.51;100.00;97894.38;5125702;28;19924;-68
2023/09/20 07:32:26;;;;;;;;;;;;;;;16.78;100.00;97896.25;5124693;28;19924;-68
2023/09/20 07:34:57;;;;;;;;;;;;;;;16.97;100.00;97894.22;5104236;28;19920;-69
2023/09/20 07:37:25;;;;;;;;;;;;;;;17.40;100.00;97899.16;5122442;28;19930;-69
2023/09/20 07:39:52;;;;;;;;;;;;;;;17.77;100.00;97901.50;5125582;28;19924;-69
2023/09/20 07:42:20;;;;;;;;;;;;;;;17.54;100.00;97898.00;5125381;28;20294;-69
2023/09/20 07:44:46;;;;;;;;;;;;;;;17.31;100.00;97899.09;5113460;28;19924;-69
2023/09/20 07:47:13;;;;;;;;;;;;;;;17.00;100.00;97899.00;5117509;28;19945;-68
2023/09/20 07:49:39;;;;;;;;;;;;;;;17.23;100.00;97897.94;5122828;28;20013;-69
2023/09/20 07:52:09;;;;;;;;;;;;;;;17.21;100.00;97888.53;5121905;28;19931;-69
2023/09/20 07:54:36;;;;;;;;;;;;;;;16.99;100.00;97881.22;5123836;28;19925;-69
2023/09/20 07:57:03;;;;;;;;;;;;;;;16.77;100.00;97883.91;5125335;28;20014;-68
2023/09/20 07:59:31;;;;;;;;;;;;;;;16.86;100.00;97881.28;5124268;28;19924;-68
2023/09/20 08:02:00;;;;;;;;;;;;;;;16.87;100.00;97883.66;5121911;28;19920;-68
2023/09/20 08:04:30;;;;;;;;;;;;;;;17.03;100.00;97884.09;5122190;28;19920;-68
2023/09/20 08:06:57;;;;;;;;;;;;;;;17.37;100.00;97872.78;5124835;28;19919;-68
2023/09/20 08:09:23;;;;;;;;;;;;;;;17.43;100.00;97875.03;5106310;28;19930;-68
2023/09/20 08:11:51;;;;;;;;;;;;;;;17.38;100.00;97877.88;5121147;28;19936;-68
2023/09/20 08:14:17;;;;;;;;;;;;;;;17.30;100.00;97875.13;5121193;28;19946;-68
2023/09/20 08:16:45;;;;;;;;;;;;;;;17.08;100.00;97876.69;5126215;28;19928;-69
2023/09/20 08:19:20;;;;;;;;;;;;;;;16.98;100.00;97873.44;5121099;28;19924;-68
2023/09/20 08:21:47;;;;;;;;;;;;;;;16.94;100.00;97875.16;5112807;28;19987;-68
2023/09/20 09:00:00;;;;;;;;;;;;;;;17.22;100.00;97857.75;5114096;28;19951;-68
2023/09/20 09:02:27;;;;;;;;;;;;;;;17.35;100.00;97853.41;5121432;28;20011;-68
2023/09/20 09:04:55;;;;;;;;;;;;;;;17.56;100.00;97841.00;5124620;28;19928;-69
2023/09/20 09:07:22;;;;;;;;;;;;;;;17.86;100.00;97834.03;5124403;28;19945;-69
2023/09/20 09:09:49;;;;;;;;;;;;;;;17.92;100.00;97833.53;5099602;28;19925;-69
2023/09/20 09:12:16;;;;;;;;;;;;;;;18.05;100.00;97832.66;5115370;28;19930;-69
2023/09/20 09:14:43;;;;;;;;;;;;;;;17.88;100.00;97824.50;5120948;28;19928;-69
2023/09/20 09:17:10;;;;;;;;;;;;;;;18.19;100.00;97817.13;5102308;28;19928;-69
2023/09/20 09:19:37;;;;;;;;;;;;;;;17.93;100.00;97824.34;5122527;28;19931;-69
2023/09/20 09:22:05;;;;;;;;;;;;;;;18.00;100.00;97819.28;5123719;28;19934;-68
2023/09/20 09:24:42;;;;;;;;;;;;;;;17.89;100.00;97812.56;5121949;28;20234;-68
2023/09/20 09:27:09;;;;;;;;;;;;;;;17.91;100.00;97810.34;5120144;28;19934;-68
2023/09/20 09:29:35;;;;;;;;;;;;;;;18.33;100.00;97806.97;5121952;28;19958;-68
2023/09/20 09:32:02;;;;;;;;;;;;;;;18.23;100.00;97801.84;5124092;28;19927;-68
2023/09/20 09:34:28;;;;;;;;;;;;;;;18.47;100.00;97800.63;5105319;28;19945;-69
2023/09/20 09:36:55;;;;;;;;;;;;;;;18.97;100.00;97799.06;5119971;28;19928;-69
2023/09/20 09:39:24;;;;;;;;;;;;;;;18.74;100.00;97793.03;5101833;28;19928;-70
2023/09/20 09:41:51;;;;;;;;;;;;;;;18.79;100.00;97792.06;5111556;28;19924;-69
2023/09/20 09:44:18;;;;;;;;;;;;;;;18.71;100.00;97782.06;5119217;28;19986;-69
2023/09/20 09:46:44;;;;;;;;;;;;;;;18.75;100.00;97780.31;5124113;28;19928;-69
2023/09/20 09:49:11;;;;;;;;;;;;;;;18.81;100.00;97779.03;5119234;28;20019;-68
2023/09/20 09:51:42;;;;;;;;;;;;;;;18.87;100.00;97780.47;5121602;28;20411;-69
2023/09/20 09:54:09;;;;;;;;;;;;;;;18.97;100.00;97787.47;5123129;28;19928;-69
2023/09/20 09:56:37;;;;;;;;;;;;;;;19.21;100.00;97787.75;5121195;28;19931;-69
2023/09/20 09:59:04;;;;;;;;;;;;;;;19.25;100.00;97780.56;5119793;28;19947;-69
2023/09/20 10:01:36;;;;;;;;;;;;;;;19.28;100.00;97783.41;5120986;28;19931;-69
2023/09/20 10:04:05;;;;;;;;;;;;;;;19.30;100.00;97770.38;5123132;28;20102;-68
2023/09/20 10:06:34;;;;;;;;;;;;;;;19.45;100.00;97776.41;5121860;28;19920;-69
2023/09/20 10:09:01;;;;;;;;;;;;;;;19.82;100.00;97770.22;5119431;28;19959;-69
2023/09/20 10:11:27;;;;;;;;;;;;;;;19.85;100.00;97773.06;5120267;28;20000;-69
2023/09/20 10:13:56;;;;;;;;;;;;;;;20.32;100.00;97765.66;5123365;28;19934;-69
2023/09/20 10:16:23;;;;;;;;;;;;;;;20.41;100.00;97760.97;5122912;28;19924;-70
2023/09/20 10:18:51;;;;;;;;;;;;;;;20.24;100.00;97761.03;5119988;28;19924;-71
2023/09/20 10:21:21;;;;;;;;;;;;;;;20.30;100.00;97751.59;5102159;28;19924;-70
2023/09/20 10:23:48;;;;;;;;;;;;;;;20.75;100.00;97749.03;5111471;28;19954;-69
2023/09/20 10:26:15;;;;;;;;;;;;;;;20.44;100.00;97744.03;5119557;28;19955;-69
2023/09/20 10:28:42;;;;;;;;;;;;;;;20.51;100.00;97750.84;5122326;28;19928;-70
2023/09/20 10:31:14;;;;;;;;;;;;;;;20.56;100.00;97756.06;5123381;28;19924;-69
2023/09/20 10:33:45;;;;;;;;;;;;;;;20.61;100.00;97745.03;5120284;28;19923;-70
2023/09/20 10:36:12;;;;;;;;;;;;;;;20.69;100.00;97747.66;5118145;28;19942;-68
2023/09/20 10:38:40;;;;;;;;;;;;;;;20.67;100.00;97741.78;5120515;28;19991;-70
2023/09/20 10:41:10;;;;;;;;;;;;;;;20.77;100.00;97741.34;5119366;28;19924;-69
2023/09/20 10:43:50;;;;;;;;;;;;;;;20.78;100.00;97731.28;5121306;28;19927;-70
2023/09/20 10:46:22;;;;;;;;;;;;;;;20.92;100.00;97729.09;5114870;28;19928;-70
2023/09/20 10:48:50;;;;;;;;;;;;;;;21.03;100.00;97732.97;5110954;28;20011;-70
2023/09/20 10:51:35;;;;;;;;;;;;;;;21.28;100.00;97723.78;5119293;28;19924;-69
2023/09/20 10:54:03;;;;;;;;;;;;;;;21.16;100.00;97718.34;5094838;28;19942;-69
2023/09/20 10:56:54;;;;;;;;;;;;;;;21.22;100.00;97716.19;5121459;28;19950;-69
2023/09/20 10:59:21;;;;;;;;;;;;;;;21.34;100.00;97718.94;5126422;28;19923;-69
2023/09/20 11:01:51;;;;;;;;;;;;;;;21.44;100.00;97710.34;5114563;28;19920;-69
2023/09/20 11:04:18;;;;;;;;;;;;;;;21.68;100.00;97704.13;5122717;28;19924;-69
2023/09/20 11:06:45;;;;;;;;;;;;;;;21.74;100.00;97703.56;5125791;28;19932;-70
2023/09/20 11:09:15;;;;;;;;;;;;;;;21.73;100.00;97706.59;5126239;28;19924;-70
2023/09/20 11:11:42;;;;;;;;;;;;;;;21.75;100.00;97693.50;5105381;28;20527;-69
2023/09/20 11:14:08;;;;;;;;;;;;;;;21.75;100.00;97682.63;5122560;28;20007;-70
2023/09/20 11:16:36;;;;;;;;;;;;;;;22.01;100.00;97681.13;5127072;28;19934;-70
2023/09/20 11:19:04;;;;;;;;;;;;;;;22.27;100.00;97679.94;5122484;28;19951;-69
2023/09/20 11:21:30;;;;;;;;;;;;;;;22.31;100.00;97681.63;5123202;28;19934;-69
2023/09/20 11:23:56;;;;;;;;;;;;;;;22.54;100.00;97679.19;5125523;28;19951;-69
2023/09/20 11:26:28;;;;;;;;;;;;;;;22.43;100.00;97678.09;5125474;28;19966;-69
2023/09/20 11:28:56;;;;;;;;;;;;;;;22.22;100.00;97669.31;5122179;28;19928;-69
2023/09/20 11:31:23;;;;;;;;;;;;;;;22.55;100.00;97667.94;5104402;28;19967;-71
2023/09/20 11:33:57;;;;;;;;;;;;;;;22.48;100.00;97654.16;5125835;28;19924;-69
2023/09/20 11:36:25;;;;;;;;;;;;;;;22.62;100.00;97670.09;5125358;28;19923;-69
2023/09/20 11:38:51;;;;;;;;;;;;;;;22.40;100.00;97660.53;5122495;28;19924;-69
2023/09/20 11:41:18;;;;;;;;;;;;;;;22.37;100.00;97642.19;5122425;28;19924;-68
2023/09/20 11:43:45;;;;;;;;;;;;;;;22.49;100.00;97653.00;5125351;28;19958;-68
2023/09/20 11:46:12;;;;;;;;;;;;;;;22.39;100.00;97647.25;5130985;28;20007;-68
2023/09/20 11:48:38;;;;;;;;;;;;;;;22.37;100.00;97644.91;5123483;28;19959;-69
2023/09/20 11:51:05;;;;;;;;;;;;;;;22.37;100.00;97638.66;5122235;28;19939;-69
2023/09/20 11:53:34;;;;;;;;;;;;;;;22.40;100.00;97633.31;5123337;28;19920;-69
2023/09/20 11:56:03;;;;;;;;;;;;;;;22.73;100.00;97629.56;5125359;28;19938;-69
2023/09/20 11:58:32;;;;;;;;;;;;;;;22.75;100.00;97627.28;5124549;28;19935;-70
2023/09/20 12:00:58;;;;;;;;;;;;;;;22.71;100.00;97629.91;5121786;28;19935;-69
2023/09/20 12:03:26;;;;;;;;;;;;;;;22.82;100.00;97630.19;5121572;28;19930;-69
2023/09/20 12:05:53;;;;;;;;;;;;;;;22.94;100.00;97630.91;5107022;28;19987;-69
2023/09/20 12:08:20;;;;;;;;;;;;;;;22.95;100.00;97629.78;5124801;28;19969;-70
2023/09/20 12:10:48;;;;;;;;;;;;;;;23.00;100.00;97626.00;5121349;28;19924;-69
2023/09/20 12:13:14;;;;;;;;;;;;;;;23.04;100.00;97619.50;5121255;28;19958;-70
2023/09/20 12:15:43;;;;;;;;;;;;;;;22.98;100.00;97615.47;5124020;28;19924;-69
2023/09/20 12:18:13;;;;;;;;;;;;;;;23.12;100.00;97615.81;5124960;28;19923;-69
2023/09/20 12:20:40;;;;;;;;;;;;;;;23.19;100.00;97609.75;5122188;28;19924;-70
2023/09/20 12:23:07;;;;;;;;;;;;;;;23.24;100.00;97604.00;5121314;28;20001;-69
2023/09/20 12:25:33;;;;;;;;;;;;;;;23.10;100.00;97590.06;5123153;28;19967;-70
2023/09/20 12:28:03;;;;;;;;;;;;;;;23.00;100.00;97582.41;5124437;28;19924;-68
2023/09/20 12:30:29;;;;;;;;;;;;;;;22.97;100.00;97592.09;5123202;28;19946;-69
2023/09/20 12:32:56;;;;;;;;;;;;;;;23.11;100.00;97583.47;5121055;28;19928;-69
2023/09/20 12:35:23;;;;;;;;;;;;;;;23.19;100.00;97578.97;5120699;28;19924;-69
2023/09/20 12:37:49;;;;;;;;;;;;;;;23.19;100.00;97571.59;5123945;28;19959;-69
2023/09/20 12:40:17;;;;;;;;;;;;;;;23.18;100.00;97563.78;5105978;28;19927;-69
2023/09/20 12:42:44;;;;;;;;;;;;;;;23.22;100.00;97560.00;5120851;28;19928;-69
2023/09/20 12:45:14;;;;;;;;;;;;;;;23.31;100.00;97552.41;5118805;28;19978;-68
2023/09/20 12:47:42;;;;;;;;;;;;;;;23.19;100.00;97551.75;5119213;28;19976;-68
2023/09/20 12:50:12;;;;;;;;;;;;;;;23.29;100.00;97548.47;5120246;28;19931;-68
2023/09/20 12:52:38;;;;;;;;;;;;;;;23.40;100.00;97544.09;5123004;28;19924;-69
2023/09/20 12:55:05;;;;;;;;;;;;;;;23.40;99.96;97547.59;5123750;28;19935;-69
2023/09/20 12:57:31;;;;;;;;;;;;;;;23.45;100.00;97541.91;5122311;28;19976;-69
2023/09/20 13:00:00;;;;;;;;;;;;;;;23.26;100.00;97527.38;5120037;28;19927;-70
2023/09/20 13:02:28;;;;;;;;;;;;;;;23.48;100.00;97521.31;5120621;28;19920;-69
2023/09/20 13:04:55;;;;;;;;;;;;;;;23.54;100.00;97523.41;5123517;28;19947;-69
2023/09/20 13:07:22;;;;;;;;;;;;;;;23.58;100.00;97524.25;5123720;28;19928;-70
2023/09/20 13:09:48;;;;;;;;;;;;;;;23.62;100.00;97525.13;5111903;28;19924;-69
2023/09/20 13:12:15;;;;;;;;;;;;;;;23.53;98.85;97513.63;5120014;28;19931;-69
2023/09/20 13:14:42;;;;;;;;;;;;;;;23.55;98.57;97518.75;5104540;28;19956;-69